createdAt,value
2018-06-02T00:02:16.101Z,18.50
2018-06-02T00:04:42.993Z,18.50
2018-06-02T00:07:09.887Z,18.40
2018-06-02T00:09:36.790Z,18.30
2018-06-02T00:12:03.692Z,18.30
2018-06-02T00:14:30.594Z,18.20
2018-06-02T00:16:57.529Z,18.20
2018-06-02T00:19:24.424Z,18.20
2018-06-02T00:21:51.345Z,18.20
2018-06-02T00:24:18.241Z,18.20
2018-06-02T00:26:45.873Z,18.00
2018-06-02T00:29:12.777Z,18.10
2018-06-02T00:31:39.677Z,18.00
2018-06-02T00:34:06.666Z,18.00
2018-06-02T00:36:33.589Z,18.00
2018-06-02T00:39:00.477Z,18.00
2018-06-02T00:41:27.364Z,17.80
2018-06-02T00:43:55.001Z,17.80
2018-06-02T00:46:21.946Z,17.80
2018-06-02T00:48:48.857Z,17.70
2018-06-02T00:51:15.772Z,17.70
2018-06-02T00:53:42.673Z,17.70
2018-06-02T00:56:09.585Z,17.60
2018-06-02T00:58:36.525Z,17.60
2018-06-02T01:01:03.459Z,17.60
2018-06-02T01:03:30.360Z,17.50
2018-06-02T01:05:57.241Z,17.40
2018-06-02T01:08:24.152Z,17.40
2018-06-02T01:10:51.083Z,17.40
2018-06-02T01:13:17.990Z,17.40
2018-06-02T01:15:44.897Z,17.40
2018-06-02T01:18:12.548Z,17.40
2018-06-02T01:20:39.467Z,17.40
2018-06-02T01:23:06.368Z,17.40
2018-06-02T01:25:33.329Z,17.40
2018-06-02T01:28:00.229Z,17.30
2018-06-02T01:30:27.108Z,17.30
2018-06-02T01:32:54.022Z,17.20
2018-06-02T01:35:20.961Z,17.10
2018-06-02T01:37:47.892Z,17.10
2018-06-02T01:40:14.785Z,17.10
2018-06-02T01:42:41.688Z,17.10
2018-06-02T01:45:08.588Z,17.00
2018-06-02T01:47:35.489Z,17.00
2018-06-02T01:50:03.207Z,16.90
2018-06-02T01:52:30.091Z,16.90
2018-06-02T01:54:57.736Z,16.90
2018-06-02T01:57:24.631Z,16.90
2018-06-02T01:59:51.525Z,16.90
2018-06-02T02:02:18.422Z,16.90
2018-06-02T02:04:45.312Z,16.90
2018-06-02T02:07:12.249Z,16.90
2018-06-02T02:09:39.146Z,16.80
2018-06-02T02:12:06.041Z,16.80
2018-06-02T02:14:32.940Z,16.80
2018-06-02T02:16:59.828Z,16.80
2018-06-02T02:19:26.718Z,16.80
2018-06-02T02:21:53.626Z,16.80
2018-06-02T02:24:20.529Z,16.80
2018-06-02T02:26:47.462Z,16.80
2018-06-02T02:29:14.362Z,16.70
2018-06-02T02:31:41.263Z,16.60
2018-06-02T02:34:08.149Z,16.60
2018-06-02T02:36:35.099Z,16.60
2018-06-02T02:39:02.950Z,16.60
2018-06-02T02:41:29.854Z,16.60
2018-06-02T02:43:56.757Z,16.50
2018-06-02T02:46:23.675Z,16.50
2018-06-02T02:48:50.588Z,16.40
2018-06-02T02:51:17.485Z,16.40
2018-06-02T02:53:44.425Z,16.40
2018-06-02T02:56:11.325Z,16.40
2018-06-02T02:58:38.227Z,16.40
2018-06-02T03:01:05.857Z,16.40
2018-06-02T03:03:32.789Z,16.40
2018-06-02T03:05:59.688Z,16.30
2018-06-02T03:08:26.585Z,16.30
2018-06-02T03:10:53.488Z,16.20
2018-06-02T03:13:20.397Z,16.20
2018-06-02T03:15:47.297Z,16.20
2018-06-02T03:18:14.192Z,16.20
2018-06-02T03:20:41.842Z,16.10
2018-06-02T03:23:08.773Z,16.10
2018-06-02T03:25:35.674Z,16.10
2018-06-02T03:28:02.581Z,16.00
2018-06-02T03:30:29.485Z,16.10
2018-06-02T03:32:56.384Z,16.00
2018-06-02T03:35:23.293Z,15.90
2018-06-02T03:37:50.303Z,16.00
2018-06-02T03:40:17.227Z,16.00
2018-06-02T03:42:44.129Z,15.90
2018-06-02T03:45:11.028Z,15.90
2018-06-02T03:47:37.965Z,15.80
2018-06-02T03:50:04.874Z,15.80
2018-06-02T03:52:31.775Z,15.80
2018-06-02T03:54:58.681Z,15.80
2018-06-02T03:57:26.321Z,16.00
2018-06-02T03:59:53.212Z,15.90
2018-06-02T04:02:20.269Z,16.00
2018-06-02T04:04:47.176Z,16.00
2018-06-02T04:07:14.132Z,16.00
2018-06-02T04:09:41.028Z,16.00
2018-06-02T04:12:07.928Z,15.80
2018-06-02T04:14:34.895Z,15.80
2018-06-02T04:17:01.788Z,15.90
2018-06-02T04:19:29.649Z,15.90
2018-06-02T04:21:56.536Z,16.00
2018-06-02T04:24:23.444Z,16.00
2018-06-02T04:26:51.100Z,15.90
2018-06-02T04:29:18.001Z,15.90
2018-06-02T04:31:45.077Z,15.90
2018-06-02T04:34:12.816Z,16.00
2018-06-02T04:36:39.717Z,15.90
2018-06-02T04:39:06.662Z,16.00
2018-06-02T04:41:33.668Z,16.10
2018-06-02T04:44:00.535Z,16.10
2018-06-02T04:46:28.201Z,16.20
2018-06-02T04:48:55.860Z,16.20
2018-06-02T04:51:22.769Z,16.20
2018-06-02T04:53:49.684Z,16.20
2018-06-02T04:56:16.592Z,16.20
2018-06-02T04:58:43.524Z,16.20
2018-06-02T05:01:10.444Z,16.30
2018-06-02T05:03:37.396Z,16.30
2018-06-02T05:06:04.353Z,16.40
2018-06-02T05:08:31.259Z,16.40
2018-06-02T05:10:58.201Z,16.40
2018-06-02T05:13:25.112Z,16.50
2018-06-02T05:15:52.780Z,16.60
2018-06-02T05:18:20.433Z,16.70
2018-06-02T05:20:47.352Z,16.70
2018-06-02T05:23:14.241Z,16.80
2018-06-02T05:25:41.145Z,16.80
2018-06-02T05:28:08.052Z,16.90
2018-06-02T05:30:34.944Z,17.00
2018-06-02T05:33:02.613Z,17.10
2018-06-02T05:35:30.248Z,17.20
2018-06-02T05:37:57.148Z,17.10
2018-06-02T05:40:24.082Z,17.30
2018-06-02T05:42:51.017Z,17.30
2018-06-02T05:45:17.944Z,17.40
2018-06-02T05:47:45.594Z,17.70
2018-06-02T05:50:12.503Z,17.80
2018-06-02T05:52:39.414Z,18.00
2018-06-02T05:55:06.369Z,18.20
2018-06-02T05:57:33.271Z,18.50
2018-06-02T06:00:00.186Z,18.80
2018-06-02T06:02:27.112Z,19.00
2018-06-02T06:04:54.009Z,19.20
2018-06-02T06:07:21.677Z,19.70
2018-06-02T06:09:49.338Z,20.10
2018-06-02T06:12:16.259Z,20.00
2018-06-02T06:14:43.227Z,20.30
2018-06-02T06:17:10.144Z,20.40
2018-06-02T06:19:37.077Z,20.60
2018-06-02T06:22:04.049Z,20.70
2018-06-02T06:24:30.965Z,20.90
2018-06-02T06:26:57.917Z,20.90
2018-06-02T06:29:24.825Z,21.10
2018-06-02T06:31:51.724Z,21.20
2018-06-02T06:34:18.636Z,21.40
2018-06-02T06:36:45.553Z,21.50
2018-06-02T06:39:12.453Z,21.50
2018-06-02T06:41:39.409Z,21.50
2018-06-02T06:44:06.324Z,21.60
2018-06-02T06:46:33.287Z,21.60
2018-06-02T06:49:00.212Z,21.60
2018-06-02T06:51:27.117Z,21.60
2018-06-02T06:53:54.056Z,21.80
2018-06-02T06:56:21.700Z,21.80
2018-06-02T06:58:48.609Z,21.70
2018-06-02T07:01:15.521Z,21.80
2018-06-02T07:03:42.428Z,21.70
2018-06-02T07:06:09.349Z,21.70
2018-06-02T07:08:36.233Z,21.80
2018-06-02T07:11:03.876Z,22.10
2018-06-02T07:13:30.773Z,22.10
2018-06-02T07:15:57.682Z,22.30
2018-06-02T07:18:24.571Z,22.40
2018-06-02T07:20:51.483Z,22.40
2018-06-02T07:23:20.041Z,22.40
2018-06-02T07:25:47.678Z,22.40
2018-06-02T07:28:14.580Z,22.40
2018-06-02T07:30:41.557Z,22.40
2018-06-02T07:33:08.438Z,22.40
2018-06-02T07:35:35.356Z,22.40
2018-06-02T07:38:02.241Z,22.40
2018-06-02T07:40:30.201Z,22.50
2018-06-02T07:42:58.728Z,22.50
2018-06-02T07:45:25.708Z,22.70
2018-06-02T07:47:54.010Z,22.90
2018-06-02T07:50:20.945Z,23.10
2018-06-02T07:52:50.194Z,23.60
2018-06-02T07:55:17.108Z,23.90
2018-06-02T07:57:44.066Z,24.30
2018-06-02T08:00:11.023Z,24.50
2018-06-02T08:02:37.935Z,24.60
2018-06-02T08:05:04.837Z,24.70
2018-06-02T08:07:33.345Z,24.60
2018-06-02T08:10:00.641Z,24.50
2018-06-02T08:12:27.908Z,24.60
2018-06-02T08:14:54.861Z,24.80
2018-06-02T08:17:21.808Z,25.00
2018-06-02T08:19:48.708Z,25.20
2018-06-02T08:22:15.642Z,25.30
2018-06-02T08:24:43.272Z,25.50
2018-06-02T08:27:10.160Z,25.50
2018-06-02T08:29:37.052Z,25.60
2018-06-02T08:32:03.951Z,25.70
2018-06-02T08:34:30.920Z,25.70
2018-06-02T08:36:58.000Z,25.90
2018-06-02T08:39:24.902Z,26.00
2018-06-02T08:41:51.816Z,26.20
2018-06-02T08:44:19.567Z,25.90
2018-06-02T08:46:47.201Z,25.70
2018-06-02T08:49:14.120Z,25.70
2018-06-02T08:51:41.018Z,25.60
2018-06-02T08:54:12.197Z,25.70
2018-06-02T08:56:39.096Z,25.60
2018-06-02T08:59:08.421Z,25.70
2018-06-02T09:01:35.798Z,25.80
2018-06-02T09:04:02.708Z,25.80
2018-06-02T09:06:30.952Z,26.00
2018-06-02T09:08:57.864Z,26.00
2018-06-02T09:11:24.769Z,26.00
2018-06-02T09:13:52.472Z,26.20
2018-06-02T09:16:19.456Z,26.10
2018-06-02T09:18:46.424Z,26.20
2018-06-02T09:21:14.833Z,26.40
2018-06-02T09:23:41.809Z,26.40
2018-06-02T09:26:08.700Z,26.50
2018-06-02T09:28:35.613Z,26.70
2018-06-02T09:31:02.536Z,26.80
2018-06-02T09:33:29.444Z,27.00
2018-06-02T09:35:56.352Z,27.10
2018-06-02T09:38:23.237Z,27.20
2018-06-02T09:40:50.224Z,27.40
2018-06-02T09:43:17.117Z,27.60
2018-06-02T09:45:44.006Z,27.70
2018-06-02T09:48:10.901Z,27.90
2018-06-02T09:50:37.797Z,28.00
2018-06-02T09:53:04.693Z,28.00
2018-06-02T09:55:31.594Z,28.20
2018-06-02T09:57:58.489Z,28.30
2018-06-02T10:00:25.448Z,28.40
2018-06-02T10:02:52.332Z,28.40
2018-06-02T10:05:19.265Z,28.40
2018-06-02T10:07:46.148Z,28.50
2018-06-02T10:10:13.036Z,28.50
2018-06-02T10:12:39.924Z,28.60
2018-06-02T10:15:06.828Z,28.60
2018-06-02T10:17:33.718Z,28.60
2018-06-02T10:20:01.345Z,28.60
2018-06-02T10:22:28.287Z,28.50
2018-06-02T10:24:56.196Z,28.30
2018-06-02T10:27:23.801Z,28.00
2018-06-02T10:29:52.397Z,27.70
2018-06-02T10:32:19.288Z,27.50
2018-06-02T10:34:46.168Z,27.40
2018-06-02T10:37:13.947Z,27.30
2018-06-02T10:39:41.928Z,27.60
2018-06-02T10:42:09.401Z,27.60
2018-06-02T10:44:36.286Z,27.90
2018-06-02T10:47:03.175Z,28.30
2018-06-02T10:49:30.068Z,28.60
2018-06-02T10:51:56.960Z,28.60
2018-06-02T10:54:23.845Z,28.50
2018-06-02T10:56:50.765Z,28.50
2018-06-02T10:59:18.468Z,28.50
2018-06-02T11:01:46.373Z,28.60
2018-06-02T11:04:13.309Z,28.50
2018-06-02T11:06:40.188Z,28.40
2018-06-02T11:09:09.253Z,28.10
2018-06-02T11:11:36.199Z,28.10
2018-06-02T11:14:03.096Z,27.90
2018-06-02T11:16:29.982Z,27.70
2018-06-02T11:18:56.869Z,27.60
2018-06-02T11:21:24.929Z,27.50
2018-06-02T11:24:04.304Z,27.50
2018-06-02T11:26:32.180Z,27.50
2018-06-02T11:29:03.290Z,27.50
2018-06-02T11:31:31.431Z,27.60
2018-06-02T11:34:00.843Z,27.60
2018-06-02T11:36:27.785Z,27.80
2018-06-02T11:38:54.680Z,28.00
2018-06-02T11:41:24.870Z,28.10
2018-06-02T11:43:56.688Z,28.20
2018-06-02T11:46:23.612Z,28.20
2018-06-02T11:48:55.492Z,28.20
2018-06-02T11:51:29.463Z,28.50
2018-06-02T11:53:59.109Z,28.50
2018-06-02T11:59:33.966Z,28.70
2018-06-02T12:02:02.656Z,28.70
2018-06-02T12:04:31.061Z,28.80
2018-06-02T12:07:04.420Z,28.80
2018-06-02T12:09:35.696Z,29.00
2018-06-02T12:12:08.828Z,29.00
2018-06-02T12:14:39.829Z,29.10
2018-06-02T12:17:21.320Z,29.20
2018-06-02T12:19:49.972Z,29.30
2018-06-02T12:22:17.959Z,29.40
2018-06-02T12:24:45.220Z,29.40
2018-06-02T12:27:13.883Z,29.50
2018-06-02T12:29:40.780Z,29.50
2018-06-02T12:32:22.659Z,29.60
2018-06-02T12:34:51.154Z,29.80
2018-06-02T12:37:25.009Z,29.80
2018-06-02T12:39:53.417Z,29.80
2018-06-02T12:42:23.685Z,29.80
2018-06-02T12:44:51.426Z,29.80
2018-06-02T12:47:24.055Z,29.70
2018-06-02T12:50:02.581Z,29.70
2018-06-02T12:52:31.828Z,29.70
2018-06-02T12:55:04.305Z,29.90
2018-06-02T12:57:37.323Z,29.80
2018-06-02T13:00:14.453Z,29.90
2018-06-02T13:02:43.872Z,30.00
2018-06-02T13:05:20.827Z,29.90
2018-06-02T13:07:47.910Z,29.80
2018-06-02T13:10:14.938Z,29.70
2018-06-02T13:12:41.868Z,29.60
2018-06-02T13:15:11.057Z,29.30
2018-06-02T13:17:38.731Z,29.30
2018-06-02T13:20:08.025Z,29.20
2018-06-02T13:22:37.534Z,29.20
2018-06-02T13:25:09.289Z,29.40
2018-06-02T13:27:40.184Z,29.50
2018-06-02T13:30:13.241Z,29.40
2018-06-02T13:32:53.416Z,29.60
2018-06-02T13:37:58.170Z,29.80
2018-06-02T13:40:25.162Z,29.90
2018-06-02T13:42:52.904Z,29.90
2018-06-02T13:45:19.780Z,29.90
2018-06-02T13:47:46.677Z,29.90
2018-06-02T13:50:13.581Z,29.90
2018-06-02T13:52:40.500Z,29.90
2018-06-02T13:55:08.538Z,30.10
2018-06-02T13:57:35.468Z,30.00
2018-06-02T14:00:03.664Z,30.10
2018-06-02T14:02:30.552Z,30.10
2018-06-02T14:04:57.447Z,30.10
2018-06-02T14:07:24.380Z,30.10
2018-06-02T14:09:51.280Z,30.10
2018-06-02T14:12:18.165Z,30.10
2018-06-02T14:14:45.812Z,30.00
2018-06-02T14:17:12.692Z,30.00
2018-06-02T14:19:39.583Z,30.00
2018-06-02T14:22:06.476Z,30.00
2018-06-02T14:24:33.376Z,29.90
2018-06-02T14:27:00.300Z,29.90
2018-06-02T14:29:27.232Z,29.80
2018-06-02T14:31:54.128Z,29.80
2018-06-02T14:34:21.017Z,29.70
2018-06-02T14:36:47.896Z,29.60
2018-06-02T14:39:14.813Z,29.60
2018-06-02T14:41:42.453Z,29.50
2018-06-02T14:44:09.348Z,29.50
2018-06-02T14:46:36.240Z,29.30
2018-06-02T14:49:03.189Z,29.10
2018-06-02T14:51:30.106Z,29.10
2018-06-02T14:53:57.017Z,29.20
2018-06-02T14:56:23.904Z,29.20
2018-06-02T14:58:51.677Z,29.30
2018-06-02T15:01:19.289Z,29.30
2018-06-02T15:03:46.610Z,29.30
2018-06-02T15:06:14.316Z,29.20
2018-06-02T15:08:41.281Z,29.10
2018-06-02T15:11:08.209Z,29.00
2018-06-02T15:13:36.295Z,28.90
2018-06-02T15:16:03.454Z,28.90
2018-06-02T15:18:30.511Z,28.90
2018-06-02T15:20:57.460Z,28.90
2018-06-02T15:23:24.367Z,28.90
2018-06-02T15:25:51.313Z,28.90
2018-06-02T15:28:18.203Z,28.90
2018-06-02T15:30:45.944Z,28.80
2018-06-02T15:33:13.941Z,28.70
2018-06-02T15:35:41.600Z,28.60
2018-06-02T15:41:47.476Z,28.50
2018-06-02T15:44:16.109Z,28.60
2018-06-02T15:46:44.732Z,28.50
2018-06-02T15:49:13.352Z,28.30
2018-06-02T15:51:42.000Z,28.20
2018-06-02T15:54:10.609Z,28.10
2018-06-02T15:56:39.213Z,28.00
2018-06-02T15:59:07.863Z,28.00
2018-06-02T16:01:36.540Z,28.00
2018-06-02T16:04:05.180Z,28.00
2018-06-02T16:06:33.825Z,27.90
2018-06-02T16:11:30.705Z,27.90
2018-06-02T16:13:59.340Z,27.90
2018-06-02T16:16:27.952Z,27.80
2018-06-02T16:18:56.577Z,27.80
2018-06-02T16:21:25.214Z,27.70
2018-06-02T16:23:53.853Z,27.60
2018-06-02T16:26:22.453Z,27.50
2018-06-02T16:28:51.069Z,27.40
2018-06-02T16:33:47.938Z,27.20
2018-06-02T16:36:29.211Z,27.10
2018-06-02T16:38:57.973Z,27.10
2018-06-02T16:41:26.654Z,27.00
2018-06-02T16:43:55.757Z,26.90
2018-06-02T16:46:24.711Z,26.90
2018-06-02T16:48:53.340Z,26.80
2018-06-02T16:51:21.937Z,26.70
2018-06-02T16:53:50.604Z,26.70
2018-06-02T16:56:19.204Z,26.60
2018-06-02T16:58:47.836Z,26.50
2018-06-02T17:01:16.438Z,26.40
2018-06-02T17:03:45.037Z,26.40
2018-06-02T17:06:13.655Z,26.40
2018-06-02T17:08:42.472Z,26.30
2018-06-02T17:11:11.144Z,26.20
2018-06-02T17:13:40.463Z,26.20
2018-06-02T17:16:09.192Z,26.10
2018-06-02T17:18:37.863Z,26.10
2018-06-02T17:21:07.537Z,26.10
2018-06-02T17:23:36.132Z,26.00
2018-06-02T17:26:05.258Z,25.90
2018-06-02T17:28:35.285Z,25.90
2018-06-02T17:31:03.995Z,25.80
2018-06-02T17:33:33.749Z,25.80
2018-06-02T17:36:03.116Z,25.80
2018-06-02T17:38:31.888Z,25.80
2018-06-02T17:41:02.250Z,25.70
2018-06-02T17:43:30.983Z,25.70
2018-06-02T17:45:59.724Z,25.70
2018-06-02T17:48:28.369Z,25.70
2018-06-02T17:53:25.246Z,25.60
2018-06-02T17:55:54.144Z,25.60
2018-06-02T17:58:22.753Z,25.60
2018-06-02T18:00:51.898Z,25.60
2018-06-02T18:03:20.528Z,25.50
2018-06-02T18:05:49.156Z,25.50
2018-06-02T18:08:17.773Z,25.40
2018-06-02T18:10:46.388Z,25.40
2018-06-02T18:13:15.088Z,25.30
2018-06-02T18:15:43.770Z,25.20
2018-06-02T18:18:12.437Z,25.20
2018-06-02T18:20:41.088Z,25.10
2018-06-02T18:23:09.689Z,25.10
2018-06-02T18:25:38.289Z,25.10
2018-06-02T18:28:06.926Z,25.00
2018-06-02T18:30:35.559Z,25.00
2018-06-02T18:39:35.220Z,24.90
2018-06-02T18:44:32.449Z,24.40
2018-06-02T18:47:01.181Z,24.40
2018-06-02T18:49:29.819Z,24.40
2018-06-02T18:51:58.420Z,24.30
2018-06-02T18:54:27.113Z,24.30
2018-06-02T18:56:55.737Z,24.20
2018-06-02T18:59:24.332Z,24.20
2018-06-02T19:01:52.960Z,24.20
2018-06-02T19:04:21.572Z,24.10
2018-06-02T19:06:50.168Z,24.10
2018-06-02T19:09:18.776Z,24.00
2018-06-02T19:11:47.389Z,23.90
2018-06-02T19:14:15.975Z,23.80
2018-06-02T19:16:44.620Z,23.80
2018-06-02T19:19:13.216Z,23.70
2018-06-02T19:21:41.842Z,23.70
2018-06-02T19:24:10.545Z,23.70
2018-06-02T19:26:39.143Z,23.60
2018-06-02T19:29:07.873Z,23.60
2018-06-02T19:31:36.513Z,23.50
2018-06-02T19:34:05.146Z,23.50
2018-06-02T19:36:33.784Z,23.40
2018-06-02T19:39:02.527Z,23.30
2018-06-02T19:41:31.141Z,23.20
2018-06-02T19:43:59.782Z,23.20
2018-06-02T19:46:28.387Z,23.00
2018-06-02T19:48:57.541Z,23.00
2018-06-02T19:51:26.349Z,22.90
2018-06-02T19:53:54.996Z,22.80
2018-06-02T19:56:23.672Z,22.60
2018-06-02T19:58:52.353Z,22.60
2018-06-02T20:01:21.099Z,22.60
2018-06-02T20:03:49.897Z,22.50
2018-06-02T20:06:18.828Z,22.50
2018-06-02T20:08:47.504Z,22.40
2018-06-02T20:11:16.724Z,22.30
2018-06-02T20:13:45.348Z,22.30
2018-06-02T20:16:13.970Z,22.10
2018-06-02T20:18:42.597Z,22.00
2018-06-02T20:23:39.827Z,21.90
2018-06-02T20:26:08.447Z,21.90
2018-06-02T20:28:37.099Z,21.90
2018-06-02T20:31:05.757Z,21.90
2018-06-02T20:33:34.613Z,21.90
2018-06-02T20:36:03.260Z,21.90
2018-06-02T20:38:33.358Z,21.80
2018-06-02T20:41:02.568Z,21.80
2018-06-02T20:43:31.228Z,21.80
2018-06-02T20:45:59.919Z,21.80
2018-06-02T20:48:28.708Z,21.60
2018-06-02T20:50:57.519Z,21.50
2018-06-02T20:53:26.350Z,21.40
2018-06-02T20:55:55.292Z,21.30
2018-06-02T20:58:24.012Z,21.30
2018-06-02T21:00:52.673Z,21.20
2018-06-02T21:03:21.353Z,21.20
2018-06-02T21:05:50.019Z,21.10
2018-06-02T21:08:18.700Z,21.10
2018-06-02T21:10:47.430Z,21.10
2018-06-02T21:13:16.480Z,20.90
2018-06-02T21:15:45.653Z,20.90
2018-06-02T21:18:14.324Z,20.90
2018-06-02T21:20:43.025Z,20.70
2018-06-02T21:23:11.652Z,20.60
2018-06-02T21:25:40.342Z,20.60
2018-06-02T21:28:08.969Z,20.60
2018-06-02T21:30:37.618Z,20.50
2018-06-02T21:33:06.321Z,20.60
2018-06-02T21:35:35.040Z,20.50
2018-06-02T21:38:03.705Z,20.50
2018-06-02T21:40:32.724Z,20.50
2018-06-02T21:43:01.391Z,20.50
2018-06-02T21:45:30.356Z,20.50
2018-06-02T21:47:59.988Z,20.60
2018-06-02T21:50:28.649Z,20.50
2018-06-02T21:52:57.556Z,20.50
2018-06-02T21:57:55.149Z,20.30
2018-06-02T22:00:24.977Z,20.20
2018-06-02T22:02:53.647Z,20.20
2018-06-02T22:05:22.292Z,20.20
2018-06-02T22:07:51.373Z,20.20
2018-06-02T22:10:20.044Z,20.20
2018-06-02T22:12:48.897Z,20.10
2018-06-02T22:15:17.840Z,20.10
2018-06-02T22:17:46.476Z,20.00
2018-06-02T22:20:15.142Z,20.00
2018-06-02T22:22:43.809Z,20.00
2018-06-02T22:25:12.429Z,20.00
2018-06-02T22:27:41.210Z,20.00
2018-06-02T22:30:09.868Z,19.90
2018-06-02T22:32:38.505Z,19.90
2018-06-02T22:35:07.159Z,19.90
2018-06-02T22:37:35.798Z,19.80
2018-06-02T22:40:04.560Z,19.80
2018-06-02T22:42:33.197Z,19.80
2018-06-02T22:45:01.874Z,19.80
2018-06-02T22:47:30.521Z,19.80
2018-06-02T22:49:59.174Z,19.80
2018-06-02T22:54:56.388Z,19.90
2018-06-02T22:57:25.269Z,19.80
2018-06-02T22:59:54.145Z,19.80
2018-06-02T23:02:23.016Z,19.70
2018-06-02T23:04:52.013Z,19.70
2018-06-02T23:07:20.875Z,19.60
2018-06-02T23:09:49.729Z,19.60
2018-06-02T23:12:18.356Z,19.60
2018-06-02T23:14:47.008Z,19.70
2018-06-02T23:17:15.636Z,19.70
2018-06-02T23:22:48.541Z,19.70
2018-06-02T23:25:17.192Z,19.70
2018-06-02T23:27:45.856Z,19.60
2018-06-02T23:30:14.507Z,19.60
2018-06-02T23:32:43.129Z,19.60
2018-06-02T23:35:11.754Z,19.60
2018-06-02T23:37:40.380Z,19.60
2018-06-02T23:40:09.025Z,19.50
2018-06-02T23:42:37.684Z,19.40
2018-06-02T23:45:06.454Z,19.40
2018-06-02T23:47:35.088Z,19.40
2018-06-02T23:50:03.716Z,19.40
2018-06-02T23:52:32.329Z,19.40
2018-06-02T23:55:01.056Z,19.40
2018-06-02T23:57:29.700Z,19.40
2018-06-02T23:59:58.352Z,19.40
